Terminal Aerodrome Forecast
Issued by NWS Miami, FL

Home | Current Version | Previous Version | Text Only | Print | Product List | Glossary On
Versions: 1 2 3 4 5 6 7 8 9 10 11 12 13 14 15 16 17 18 19 20 21 22 23 24 25
000
FTUS42 KMFL 241134
TAFPBI
TAF
KPBI 241134Z 2412/2512 12006KT P6SM VCSH SCT025 BKN100
     FM241400 12009KT P6SM VCSH FEW025 BKN035 BKN070
     FM242300 12006KT P6SM SCT025 BKN050
     FM250400 13003KT P6SM VCSH BKN035=

USA.gov is the U.S. government's official web portal to all federal, state and local government web resources and services.